Terminal Aerodrome Forecast
Issued by NWS Cleveland, OH

Home | Current Version | Previous Version | Graphics & Text | Print | Product List | Glossary Off
Versions: 1 2 3 4 5 6 7 8 9 10 11 12 13 14 15 16 17 18 19 20 21 22 23 24 25 26 27 28

023
FTUS41 KCLE 201428 AAA
TAFERI
TAF AMD
KERI 201428Z 2014/2112 15006KT 5SM -RA OVC040
      TEMPO 2014/2017 2SM -RA BR OVC025
     FM201700 18008KT 4SM BR OVC007
     FM210000 20006KT P6SM OVC009=

USA.gov is the U.S. government's official web portal to all federal, state and local government web resources and services.